LIMPLIPB

Guest
Details From LIMP - PARMA
To LIPB - BOLZANO
Flight Number -
Tags generated
Created
Modified
Stats Distance 108 nm / 199 km
Max Altitude 5,600 ft / 1,707 m
Waypoints 3
Social Downloads 0
Likes 0
Share VATSIM

Download

Looking for another format? Having issues loading an existing format? Contact us
Advertisement - Login to hide

Notes

Basic altitude profile: - Ascent Rate: 1000ft/min - Ascent Speed: 80kts - Cruise Altitude: 10000ft - Cruise Speed: 120kts - Descent Rate: 1000ft/min - Descent Speed: 75kts Options: - Use NATs: yes - Use PACOTS: no - Use low airways: yes - Use high airways: no

Route

LIMP BORMI LIPB

ID Type Via Altitude Latitude Longitude Leg Dist Tot Dist Heading (true) Name
O LIMP APT - 0 ft / 0 m 44.82677˚ 10.29711˚ - 0 nm - PARMA
BORMI FIX - 5,600 ft / 1,707 m 46.03611˚ 11.16667˚ 81 nm 81 nm 26° / 27° -
O LIPB APT - 0 ft / 0 m 46.45891˚ 11.32686˚ 26 nm 107 nm 15° / 15° BOLZANO

Altitude Profile

Advertisement - Login to hide

LIMP

Details ICAO LIMP (PMF)
Name PARMA
Region Italy
Timezone Europe/Rome (UTC+1.0)
Stats Elevation 161 ft / 49 m (AMSL)
Location 44.826774° 10.297108°
Runways 1
Magnetic Variation 2.716° E

METAR

Not found

TAF

TAF LIMP 151100Z 1512/1612 VRB05KT 3000 BR BKN070 TEMPO 1513/1519 RA

Decode

Departure Runways

ID Width Length Bearing (true) Bearing (mag) Surface Threshold Offset Overrun Length
02 148 ft / 45 m 6,966 ft / 2,123 m 17.20° 14.48° Asphalt 702 ft / 214 m 0 ft / 0 m
20 148 ft / 45 m 6,966 ft / 2,123 m 197.20° 194.48° Asphalt 597 ft / 182 m 0 ft / 0 m

LIPB

Details ICAO LIPB (BZO)
Name BOLZANO
Region Italy
Timezone Europe/Rome (UTC+1.0)
Stats Elevation 789 ft / 240 m (AMSL)
Location 46.458906° 11.326862°
Runways 2
Magnetic Variation 2.991° E

METAR

LIPB 151350Z 20002KT 9999 FEW035 BKN055 03/01 Q0999

Decode

TAF

TAF TAF LIPB 151100Z 1512/1612 VRB05KT 8000 BKN040

Decode

Destination Runways

ID Width Length Bearing (true) Bearing (mag) Surface Threshold Offset Overrun Length
01 98 ft / 30 m 4,257 ft / 1,297 m 10.21° 7.22° Asphalt 0 ft / 0 m 0 ft / 0 m
01R 66 ft / 20 m 2,292 ft / 698 m 10.57° 7.58° Grass 0 ft / 0 m 0 ft / 0 m
19 98 ft / 30 m 4,257 ft / 1,297 m 190.22° 187.23° Asphalt 200 ft / 61 m 0 ft / 0 m
19L 66 ft / 20 m 2,292 ft / 698 m 190.58° 187.59° Grass 0 ft / 0 m 0 ft / 0 m

Approach Navaids

Runway Type Ident Frequency Range Bearing (true) Bearing (mag) Slope Elevation
01 Localiser IBZ 109.10 MHz 18 nm / 33 km 18.82° 15.82° - 789 ft / 240 m (AMSL)
01 DME IBZ 109.10 MHz 18 nm / 33 km - - - 789 ft / 240 m (AMSL)